CheckWX is a tool to help pilots better visualize weather data.  It is not intended as a substitute for an official pre-flight weather briefing.

13:43:08 UTC

UIII TAF
Irkutsk Airport
Irkutsk, Russian Federation
TAF UIII 181100Z 1812/1912 31003MPS 9999 NSC TEMPO 1814/1901 0300 FG VV001 BECMG 1901/1902 -SHRA BKN009CB TEMPO 1902/1912 BKN003 BKN009CB

Aug-18@
12:00 UTC

Aug-18 @ 12:00 UTC

Aug-19@
01:00 UTC

Aug-19 @ 01:00 UTC

TAF UIII 181100Z 1812/1912 31003MPS 9999 NSC
Wind
  • 310° at 6 KTS
Cloud Levels
  • No significant clouds

Aug-18@
14:00 UTC

Aug-18 @ 14:00 UTC

Aug-19@
01:00 UTC

Aug-19 @ 01:00 UTC

TEMPO 1814/1901 0300 FG VV001

Temporary

Temporary Changes expected for less than half the time period

Conditions
Fog
Cloud Levels
  • Vertical visibility at 100' AGL

Aug-19@
01:00 UTC

Aug-19 @ 01:00 UTC

Aug-19@
12:00 UTC

Aug-19 @ 12:00 UTC

BECMG 1901/1902 -SHRA BKN009CB

Becoming

Becoming Conditions expected by Mon, Aug 19, 2019 @ 02:00 UTC

Wind
  • 310° at 6 KTS
Conditions
Light Rain
Cloud Levels
  • Broken at 900' AGL

Aug-19@
02:00 UTC

Aug-19 @ 02:00 UTC

Aug-19@
12:00 UTC

Aug-19 @ 12:00 UTC

TEMPO 1902/1912 BKN003 BKN009CB

Temporary

Temporary Changes expected for less than half the time period

Cloud Levels
  • Broken at 300' AGL
  • Broken at 900' AGL